sensor_id;sensor_type;location;lat;lon;timestamp;pressure;altitude;pressure_sealevel;temperature
80581;BMP180;1474;51.460;7.150;2023-06-24T00:10:07;101434.00;;;16.50
80581;BMP180;1474;51.460;7.150;2023-06-24T00:13:43;101441.00;;;16.30
80581;BMP180;1474;51.460;7.150;2023-06-24T00:17:22;101436.00;;;16.10
80581;BMP180;1474;51.460;7.150;2023-06-24T00:20:43;101436.00;;;16.30
80581;BMP180;1474;51.460;7.150;2023-06-24T00:23:37;101433.00;;;16.40
80581;BMP180;1474;51.460;7.150;2023-06-24T00:26:53;101433.00;;;16.30
80581;BMP180;1474;51.460;7.150;2023-06-24T00:30:23;101436.00;;;16.30
80581;BMP180;1474;51.460;7.150;2023-06-24T00:33:06;101430.00;;;16.20
80581;BMP180;1474;51.460;7.150;2023-06-24T00:35:53;101424.00;;;16.30
80581;BMP180;1474;51.460;7.150;2023-06-24T00:39:04;101425.00;;;16.10
80581;BMP180;1474;51.460;7.150;2023-06-24T00:42:08;101431.00;;;16.20
80581;BMP180;1474;51.460;7.150;2023-06-24T00:46:44;101426.00;;;16.20
80581;BMP180;1474;51.460;7.150;2023-06-24T00:50:57;101428.00;;;16.10
80581;BMP180;1474;51.460;7.150;2023-06-24T00:55:17;101431.00;;;16.00
80581;BMP180;1474;51.460;7.150;2023-06-24T01:03:37;101430.00;;;15.90
80581;BMP180;1474;51.460;7.150;2023-06-24T01:16:10;101415.00;;;15.80
80581;BMP180;1474;51.460;7.150;2023-06-24T01:45:23;101412.00;;;15.60
80581;BMP180;1474;51.460;7.150;2023-06-24T01:54:15;101389.00;;;15.60
80581;BMP180;1474;51.460;7.150;2023-06-24T02:21:46;101405.00;;;15.50
80581;BMP180;1474;51.460;7.150;2023-06-24T02:24:40;101399.00;;;15.40
80581;BMP180;1474;51.460;7.150;2023-06-24T02:27:27;101392.00;;;15.40
80581;BMP180;1474;51.460;7.150;2023-06-24T02:30:18;101384.00;;;15.30
80581;BMP180;1474;51.460;7.150;2023-06-24T02:33:53;101387.00;;;15.30
80581;BMP180;1474;51.460;7.150;2023-06-24T02:47:00;101383.00;;;15.50
80581;BMP180;1474;51.460;7.150;2023-06-24T02:50:59;101385.00;;;15.60
80581;BMP180;1474;51.460;7.150;2023-06-24T02:55:20;101388.00;;;15.50
80581;BMP180;1474;51.460;7.150;2023-06-24T02:59:35;101396.00;;;15.50
80581;BMP180;1474;51.460;7.150;2023-06-24T03:04:13;101388.00;;;15.30
80581;BMP180;1474;51.460;7.150;2023-06-24T03:07:58;101392.00;;;15.20
80581;BMP180;1474;51.460;7.150;2023-06-24T03:11:53;101395.00;;;15.20
80581;BMP180;1474;51.460;7.150;2023-06-24T03:15:04;101383.00;;;15.20
80581;BMP180;1474;51.460;7.150;2023-06-24T03:17:30;101392.00;;;15.20
80581;BMP180;1474;51.460;7.150;2023-06-24T03:19:56;101385.00;;;15.20
80581;BMP180;1474;51.460;7.150;2023-06-24T03:22:24;101394.00;;;15.30
80581;BMP180;1474;51.460;7.150;2023-06-24T03:24:50;101393.00;;;15.20
80581;BMP180;1474;51.460;7.150;2023-06-24T03:27:17;101385.00;;;15.20
80581;BMP180;1474;51.460;7.150;2023-06-24T03:29:42;101391.00;;;15.30
80581;BMP180;1474;51.460;7.150;2023-06-24T03:32:08;101383.00;;;15.40
80581;BMP180;1474;51.460;7.150;2023-06-24T03:34:34;101383.00;;;15.60
80581;BMP180;1474;51.460;7.150;2023-06-24T03:37:00;101384.00;;;15.60
80581;BMP180;1474;51.460;7.150;2023-06-24T03:39:25;101393.00;;;16.00
80581;BMP180;1474;51.460;7.150;2023-06-24T03:41:51;101395.00;;;16.00
80581;BMP180;1474;51.460;7.150;2023-06-24T03:44:17;101393.00;;;16.10
80581;BMP180;1474;51.460;7.150;2023-06-24T03:46:43;101393.00;;;16.20
80581;BMP180;1474;51.460;7.150;2023-06-24T03:49:08;101388.00;;;16.30
80581;BMP180;1474;51.460;7.150;2023-06-24T03:51:34;101399.00;;;16.50
80581;BMP180;1474;51.460;7.150;2023-06-24T03:54:00;101400.00;;;16.60
80581;BMP180;1474;51.460;7.150;2023-06-24T03:56:26;101397.00;;;16.90
80581;BMP180;1474;51.460;7.150;2023-06-24T03:58:52;101404.00;;;16.90
80581;BMP180;1474;51.460;7.150;2023-06-24T04:01:18;101401.00;;;16.90
80581;BMP180;1474;51.460;7.150;2023-06-24T04:03:45;101412.00;;;17.00
80581;BMP180;1474;51.460;7.150;2023-06-24T04:06:12;101403.00;;;17.10
80581;BMP180;1474;51.460;7.150;2023-06-24T04:08:37;101407.00;;;17.20
80581;BMP180;1474;51.460;7.150;2023-06-24T04:11:08;101413.00;;;17.20
80581;BMP180;1474;51.460;7.150;2023-06-24T04:13:35;101410.00;;;17.30
80581;BMP180;1474;51.460;7.150;2023-06-24T04:16:01;101409.00;;;17.30
80581;BMP180;1474;51.460;7.150;2023-06-24T04:18:27;101409.00;;;17.30
80581;BMP180;1474;51.460;7.150;2023-06-24T04:20:53;101411.00;;;17.30
80581;BMP180;1474;51.460;7.150;2023-06-24T04:23:19;101411.00;;;17.30
80581;BMP180;1474;51.460;7.150;2023-06-24T04:25:45;101407.00;;;17.40
80581;BMP180;1474;51.460;7.150;2023-06-24T04:28:11;101396.00;;;17.40
80581;BMP180;1474;51.460;7.150;2023-06-24T04:30:37;101397.00;;;17.40
80581;BMP180;1474;51.460;7.150;2023-06-24T04:33:04;101401.00;;;17.50
80581;BMP180;1474;51.460;7.150;2023-06-24T04:35:30;101402.00;;;17.50
80581;BMP180;1474;51.460;7.150;2023-06-24T04:37:57;101413.00;;;17.70
80581;BMP180;1474;51.460;7.150;2023-06-24T04:40:22;101410.00;;;17.80
80581;BMP180;1474;51.460;7.150;2023-06-24T04:42:48;101413.00;;;18.00
80581;BMP180;1474;51.460;7.150;2023-06-24T04:45:14;101414.00;;;17.90
80581;BMP180;1474;51.460;7.150;2023-06-24T04:47:41;101421.00;;;17.90
80581;BMP180;1474;51.460;7.150;2023-06-24T04:50:07;101415.00;;;18.00
80581;BMP180;1474;51.460;7.150;2023-06-24T04:52:35;101417.00;;;18.00
80581;BMP180;1474;51.460;7.150;2023-06-24T04:55:01;101412.00;;;18.00
80581;BMP180;1474;51.460;7.150;2023-06-24T04:57:29;101415.00;;;18.10
80581;BMP180;1474;51.460;7.150;2023-06-24T04:59:57;101415.00;;;18.10
80581;BMP180;1474;51.460;7.150;2023-06-24T05:02:24;101413.00;;;18.10
80581;BMP180;1474;51.460;7.150;2023-06-24T05:04:51;101409.00;;;18.20
80581;BMP180;1474;51.460;7.150;2023-06-24T05:07:17;101405.00;;;18.40
80581;BMP180;1474;51.460;7.150;2023-06-24T05:09:47;101361.00;;;19.00
80581;BMP180;1474;51.460;7.150;2023-06-24T05:12:13;101378.00;;;21.20
80581;BMP180;1474;51.460;7.150;2023-06-24T05:14:39;101391.00;;;20.10
80581;BMP180;1474;51.460;7.150;2023-06-24T05:17:05;101341.00;;;21.60
80581;BMP180;1474;51.460;7.150;2023-06-24T05:19:31;101407.00;;;21.00
80581;BMP180;1474;51.460;7.150;2023-06-24T05:21:57;101404.00;;;20.10
80581;BMP180;1474;51.460;7.150;2023-06-24T05:24:23;101398.00;;;19.90
80581;BMP180;1474;51.460;7.150;2023-06-24T05:26:50;101369.00;;;20.90
80581;BMP180;1474;51.460;7.150;2023-06-24T05:29:17;101404.00;;;20.70
80581;BMP180;1474;51.460;7.150;2023-06-24T05:31:43;101408.00;;;20.00
80581;BMP180;1474;51.460;7.150;2023-06-24T05:34:09;101395.00;;;19.90
80581;BMP180;1474;51.460;7.150;2023-06-24T05:36:35;101351.00;;;21.50
80581;BMP180;1474;51.460;7.150;2023-06-24T05:39:01;101375.00;;;22.90
80581;BMP180;1474;51.460;7.150;2023-06-24T05:41:27;101396.00;;;23.00
80581;BMP180;1474;51.460;7.150;2023-06-24T05:44:08;101409.00;;;22.20
80581;BMP180;1474;51.460;7.150;2023-06-24T05:46:35;101411.00;;;21.60
80581;BMP180;1474;51.460;7.150;2023-06-24T05:49:02;101406.00;;;21.30
80581;BMP180;1474;51.460;7.150;2023-06-24T05:51:28;101408.00;;;21.30
80581;BMP180;1474;51.460;7.150;2023-06-24T05:53:54;101412.00;;;21.20
80581;BMP180;1474;51.460;7.150;2023-06-24T05:56:21;101428.00;;;20.80
80581;BMP180;1474;51.460;7.150;2023-06-24T05:58:50;101421.00;;;20.40
80581;BMP180;1474;51.460;7.150;2023-06-24T06:01:16;101425.00;;;20.20
80581;BMP180;1474;51.460;7.150;2023-06-24T06:03:42;101433.00;;;20.00
80581;BMP180;1474;51.460;7.150;2023-06-24T06:06:08;101423.00;;;19.80
80581;BMP180;1474;51.460;7.150;2023-06-24T06:08:34;101427.00;;;19.90
80581;BMP180;1474;51.460;7.150;2023-06-24T06:11:00;101416.00;;;20.00
80581;BMP180;1474;51.460;7.150;2023-06-24T06:13:30;101411.00;;;20.80
80581;BMP180;1474;51.460;7.150;2023-06-24T06:15:57;101416.00;;;21.30
80581;BMP180;1474;51.460;7.150;2023-06-24T06:18:23;101410.00;;;21.40
80581;BMP180;1474;51.460;7.150;2023-06-24T06:20:49;101418.00;;;21.90
80581;BMP180;1474;51.460;7.150;2023-06-24T06:23:16;101424.00;;;22.00
80581;BMP180;1474;51.460;7.150;2023-06-24T06:25:42;101418.00;;;21.80
80581;BMP180;1474;51.460;7.150;2023-06-24T06:28:08;101431.00;;;21.80
80581;BMP180;1474;51.460;7.150;2023-06-24T06:30:34;101439.00;;;21.50
80581;BMP180;1474;51.460;7.150;2023-06-24T06:32:59;101444.00;;;21.70
80581;BMP180;1474;51.460;7.150;2023-06-24T06:35:25;101441.00;;;21.40
80581;BMP180;1474;51.460;7.150;2023-06-24T06:37:51;101434.00;;;21.60
80581;BMP180;1474;51.460;7.150;2023-06-24T06:40:23;101434.00;;;22.20
80581;BMP180;1474;51.460;7.150;2023-06-24T06:42:49;101414.00;;;22.70
80581;BMP180;1474;51.460;7.150;2023-06-24T06:45:15;101445.00;;;22.80
80581;BMP180;1474;51.460;7.150;2023-06-24T06:47:41;101428.00;;;22.90
80581;BMP180;1474;51.460;7.150;2023-06-24T06:50:07;101444.00;;;22.70
80581;BMP180;1474;51.460;7.150;2023-06-24T06:52:34;101448.00;;;22.30
80581;BMP180;1474;51.460;7.150;2023-06-24T06:55:00;101453.00;;;22.00
80581;BMP180;1474;51.460;7.150;2023-06-24T06:57:25;101444.00;;;22.20
80581;BMP180;1474;51.460;7.150;2023-06-24T06:59:52;101452.00;;;22.40
80581;BMP180;1474;51.460;7.150;2023-06-24T07:02:18;101451.00;;;22.40
80581;BMP180;1474;51.460;7.150;2023-06-24T07:04:44;101458.00;;;22.90
80581;BMP180;1474;51.460;7.150;2023-06-24T07:07:10;101454.00;;;23.00
80581;BMP180;1474;51.460;7.150;2023-06-24T07:09:37;101455.00;;;22.50
80581;BMP180;1474;51.460;7.150;2023-06-24T07:12:03;101454.00;;;22.80
80581;BMP180;1474;51.460;7.150;2023-06-24T07:14:29;101461.00;;;23.00
80581;BMP180;1474;51.460;7.150;2023-06-24T07:16:55;101450.00;;;23.20
80581;BMP180;1474;51.460;7.150;2023-06-24T07:19:21;101451.00;;;23.10
80581;BMP180;1474;51.460;7.150;2023-06-24T07:21:46;101449.00;;;23.30
80581;BMP180;1474;51.460;7.150;2023-06-24T07:24:12;101454.00;;;23.50
80581;BMP180;1474;51.460;7.150;2023-06-24T07:26:38;101451.00;;;23.60
80581;BMP180;1474;51.460;7.150;2023-06-24T07:29:06;101454.00;;;23.60
80581;BMP180;1474;51.460;7.150;2023-06-24T07:31:39;101452.00;;;23.40
80581;BMP180;1474;51.460;7.150;2023-06-24T07:34:05;101455.00;;;23.80
80581;BMP180;1474;51.460;7.150;2023-06-24T07:36:32;101458.00;;;23.90
80581;BMP180;1474;51.460;7.150;2023-06-24T07:38:57;101453.00;;;24.00
80581;BMP180;1474;51.460;7.150;2023-06-24T07:41:38;101466.00;;;24.40
80581;BMP180;1474;51.460;7.150;2023-06-24T07:44:12;101466.00;;;24.20
80581;BMP180;1474;51.460;7.150;2023-06-24T07:47:04;101471.00;;;24.00
80581;BMP180;1474;51.460;7.150;2023-06-24T07:49:48;101460.00;;;23.90
80581;BMP180;1474;51.460;7.150;2023-06-24T07:52:16;101457.00;;;23.60
80581;BMP180;1474;51.460;7.150;2023-06-24T07:54:42;101468.00;;;24.20
80581;BMP180;1474;51.460;7.150;2023-06-24T07:57:09;101465.00;;;24.20
80581;BMP180;1474;51.460;7.150;2023-06-24T07:59:34;101461.00;;;24.20
80581;BMP180;1474;51.460;7.150;2023-06-24T08:02:03;101455.00;;;24.70
80581;BMP180;1474;51.460;7.150;2023-06-24T08:04:29;101459.00;;;24.70
80581;BMP180;1474;51.460;7.150;2023-06-24T08:06:55;101458.00;;;24.60
80581;BMP180;1474;51.460;7.150;2023-06-24T08:09:21;101467.00;;;24.70
80581;BMP180;1474;51.460;7.150;2023-06-24T08:11:48;101461.00;;;24.80
80581;BMP180;1474;51.460;7.150;2023-06-24T08:14:14;101454.00;;;24.80
80581;BMP180;1474;51.460;7.150;2023-06-24T08:16:39;101455.00;;;25.00
80581;BMP180;1474;51.460;7.150;2023-06-24T08:19:05;101456.00;;;25.00
80581;BMP180;1474;51.460;7.150;2023-06-24T08:21:31;101459.00;;;24.90
80581;BMP180;1474;51.460;7.150;2023-06-24T08:24:00;101461.00;;;25.20
80581;BMP180;1474;51.460;7.150;2023-06-24T08:26:26;101461.00;;;25.20
80581;BMP180;1474;51.460;7.150;2023-06-24T08:28:51;101460.00;;;25.60
80581;BMP180;1474;51.460;7.150;2023-06-24T08:31:17;101471.00;;;25.70
80581;BMP180;1474;51.460;7.150;2023-06-24T08:33:44;101457.00;;;25.60
80581;BMP180;1474;51.460;7.150;2023-06-24T08:36:13;101458.00;;;25.70
80581;BMP180;1474;51.460;7.150;2023-06-24T08:38:39;101446.00;;;26.10
80581;BMP180;1474;51.460;7.150;2023-06-24T08:41:08;101447.00;;;25.80
80581;BMP180;1474;51.460;7.150;2023-06-24T08:43:34;101442.00;;;26.10
80581;BMP180;1474;51.460;7.150;2023-06-24T08:46:16;101446.00;;;26.30
80581;BMP180;1474;51.460;7.150;2023-06-24T08:48:48;101442.00;;;26.10
80581;BMP180;1474;51.460;7.150;2023-06-24T08:51:20;101443.00;;;26.30
80581;BMP180;1474;51.460;7.150;2023-06-24T08:53:48;101441.00;;;26.40
80581;BMP180;1474;51.460;7.150;2023-06-24T08:56:16;101439.00;;;26.50
80581;BMP180;1474;51.460;7.150;2023-06-24T08:58:42;101438.00;;;26.50
80581;BMP180;1474;51.460;7.150;2023-06-24T09:01:08;101444.00;;;26.40
80581;BMP180;1474;51.460;7.150;2023-06-24T09:03:34;101431.00;;;26.60
80581;BMP180;1474;51.460;7.150;2023-06-24T09:06:01;101432.00;;;26.80
80581;BMP180;1474;51.460;7.150;2023-06-24T09:08:26;101437.00;;;27.10
80581;BMP180;1474;51.460;7.150;2023-06-24T09:10:55;101440.00;;;26.70
80581;BMP180;1474;51.460;7.150;2023-06-24T09:13:27;101431.00;;;27.00
80581;BMP180;1474;51.460;7.150;2023-06-24T09:15:59;101431.00;;;27.10
80581;BMP180;1474;51.460;7.150;2023-06-24T09:18:31;101431.00;;;27.10
80581;BMP180;1474;51.460;7.150;2023-06-24T09:20:57;101431.00;;;27.30
80581;BMP180;1474;51.460;7.150;2023-06-24T09:23:26;101419.00;;;27.20
80581;BMP180;1474;51.460;7.150;2023-06-24T09:25:57;101417.00;;;27.40
80581;BMP180;1474;51.460;7.150;2023-06-24T09:28:29;101423.00;;;27.70
80581;BMP180;1474;51.460;7.150;2023-06-24T09:31:09;101422.00;;;27.70
80581;BMP180;1474;51.460;7.150;2023-06-24T09:33:35;101417.00;;;27.60
80581;BMP180;1474;51.460;7.150;2023-06-24T09:36:05;101410.00;;;27.50
80581;BMP180;1474;51.460;7.150;2023-06-24T09:38:36;101409.00;;;27.60
80581;BMP180;1474;51.460;7.150;2023-06-24T09:41:03;101410.00;;;27.60
80581;BMP180;1474;51.460;7.150;2023-06-24T09:43:32;101410.00;;;28.00
80581;BMP180;1474;51.460;7.150;2023-06-24T09:46:01;101406.00;;;27.90
80581;BMP180;1474;51.460;7.150;2023-06-24T09:48:26;101411.00;;;27.70
80581;BMP180;1474;51.460;7.150;2023-06-24T09:50:55;101416.00;;;28.20
80581;BMP180;1474;51.460;7.150;2023-06-24T09:53:25;101415.00;;;28.20
80581;BMP180;1474;51.460;7.150;2023-06-24T09:55:52;101413.00;;;27.70
80581;BMP180;1474;51.460;7.150;2023-06-24T09:58:20;101416.00;;;28.00
80581;BMP180;1474;51.460;7.150;2023-06-24T10:00:46;101406.00;;;28.10
80581;BMP180;1474;51.460;7.150;2023-06-24T10:03:12;101411.00;;;27.80
80581;BMP180;1474;51.460;7.150;2023-06-24T10:05:40;101404.00;;;27.00
80581;BMP180;1474;51.460;7.150;2023-06-24T10:08:08;101400.00;;;27.40
80581;BMP180;1474;51.460;7.150;2023-06-24T10:10:34;101405.00;;;27.50
80581;BMP180;1474;51.460;7.150;2023-06-24T10:13:00;101398.00;;;28.00
80581;BMP180;1474;51.460;7.150;2023-06-24T10:15:26;101389.00;;;27.60
80581;BMP180;1474;51.460;7.150;2023-06-24T10:17:52;101391.00;;;27.90
80581;BMP180;1474;51.460;7.150;2023-06-24T10:20:25;101383.00;;;27.60
80581;BMP180;1474;51.460;7.150;2023-06-24T10:22:52;101374.00;;;27.90
80581;BMP180;1474;51.460;7.150;2023-06-24T10:25:18;101381.00;;;28.20
80581;BMP180;1474;51.460;7.150;2023-06-24T10:27:44;101407.00;;;27.70
80581;BMP180;1474;51.460;7.150;2023-06-24T10:30:21;101379.00;;;28.00
80581;BMP180;1474;51.460;7.150;2023-06-24T10:32:53;101370.00;;;28.20
80581;BMP180;1474;51.460;7.150;2023-06-24T10:35:24;101374.00;;;28.50
80581;BMP180;1474;51.460;7.150;2023-06-24T10:38:01;101368.00;;;28.00
80581;BMP180;1474;51.460;7.150;2023-06-24T10:40:39;101364.00;;;28.20
80581;BMP180;1474;51.460;7.150;2023-06-24T10:43:27;101365.00;;;28.20
80581;BMP180;1474;51.460;7.150;2023-06-24T10:45:56;101365.00;;;28.80
80581;BMP180;1474;51.460;7.150;2023-06-24T10:48:22;101358.00;;;28.90
80581;BMP180;1474;51.460;7.150;2023-06-24T10:50:49;101361.00;;;28.90
80581;BMP180;1474;51.460;7.150;2023-06-24T10:53:15;101356.00;;;28.90
80581;BMP180;1474;51.460;7.150;2023-06-24T10:55:44;101360.00;;;28.60
80581;BMP180;1474;51.460;7.150;2023-06-24T10:58:13;101351.00;;;28.80
80581;BMP180;1474;51.460;7.150;2023-06-24T11:00:41;101356.00;;;28.90
80581;BMP180;1474;51.460;7.150;2023-06-24T11:03:14;101348.00;;;29.10
80581;BMP180;1474;51.460;7.150;2023-06-24T11:05:41;101351.00;;;29.00
80581;BMP180;1474;51.460;7.150;2023-06-24T11:08:09;101346.00;;;29.50
80581;BMP180;1474;51.460;7.150;2023-06-24T11:10:46;101344.00;;;29.00
80581;BMP180;1474;51.460;7.150;2023-06-24T11:13:13;101346.00;;;29.00
80581;BMP180;1474;51.460;7.150;2023-06-24T11:15:40;101341.00;;;28.80
80581;BMP180;1474;51.460;7.150;2023-06-24T11:18:10;101343.00;;;29.10
80581;BMP180;1474;51.460;7.150;2023-06-24T11:20:39;101347.00;;;29.50
80581;BMP180;1474;51.460;7.150;2023-06-24T11:23:09;101342.00;;;29.00
80581;BMP180;1474;51.460;7.150;2023-06-24T11:25:43;101341.00;;;28.50
80581;BMP180;1474;51.460;7.150;2023-06-24T11:28:18;101339.00;;;28.80
80581;BMP180;1474;51.460;7.150;2023-06-24T11:30:44;101332.00;;;29.10
80581;BMP180;1474;51.460;7.150;2023-06-24T11:33:10;101336.00;;;29.20
80581;BMP180;1474;51.460;7.150;2023-06-24T11:35:36;101340.00;;;29.20
80581;BMP180;1474;51.460;7.150;2023-06-24T11:38:03;101332.00;;;29.10
80581;BMP180;1474;51.460;7.150;2023-06-24T11:40:31;101343.00;;;28.80
80581;BMP180;1474;51.460;7.150;2023-06-24T11:43:00;101335.00;;;28.70
80581;BMP180;1474;51.460;7.150;2023-06-24T11:45:26;101346.00;;;29.10
80581;BMP180;1474;51.460;7.150;2023-06-24T11:47:52;101331.00;;;29.30
80581;BMP180;1474;51.460;7.150;2023-06-24T11:50:25;101331.00;;;28.80
80581;BMP180;1474;51.460;7.150;2023-06-24T11:52:51;101348.00;;;29.10
80581;BMP180;1474;51.460;7.150;2023-06-24T11:55:24;101339.00;;;29.40
80581;BMP180;1474;51.460;7.150;2023-06-24T11:58:02;101335.00;;;29.40
80581;BMP180;1474;51.460;7.150;2023-06-24T12:00:39;101333.00;;;29.40
80581;BMP180;1474;51.460;7.150;2023-06-24T12:03:10;101326.00;;;29.60
80581;BMP180;1474;51.460;7.150;2023-06-24T12:05:39;101329.00;;;29.20
80581;BMP180;1474;51.460;7.150;2023-06-24T12:08:12;101324.00;;;29.50
80581;BMP180;1474;51.460;7.150;2023-06-24T12:10:41;101325.00;;;29.30
80581;BMP180;1474;51.460;7.150;2023-06-24T12:13:07;101326.00;;;29.70
80581;BMP180;1474;51.460;7.150;2023-06-24T12:15:34;101314.00;;;29.80
80581;BMP180;1474;51.460;7.150;2023-06-24T12:18:01;101320.00;;;29.20
80581;BMP180;1474;51.460;7.150;2023-06-24T12:20:29;101318.00;;;29.20
80581;BMP180;1474;51.460;7.150;2023-06-24T12:22:55;101321.00;;;28.80
80581;BMP180;1474;51.460;7.150;2023-06-24T12:25:21;101314.00;;;28.90
80581;BMP180;1474;51.460;7.150;2023-06-24T12:27:47;101316.00;;;29.20
80581;BMP180;1474;51.460;7.150;2023-06-24T12:30:13;101315.00;;;29.60
80581;BMP180;1474;51.460;7.150;2023-06-24T12:32:40;101304.00;;;30.00
80581;BMP180;1474;51.460;7.150;2023-06-24T12:35:07;101303.00;;;29.70
80581;BMP180;1474;51.460;7.150;2023-06-24T12:37:36;101301.00;;;29.60
80581;BMP180;1474;51.460;7.150;2023-06-24T12:40:06;101297.00;;;29.50
80581;BMP180;1474;51.460;7.150;2023-06-24T12:42:32;101295.00;;;29.50
80581;BMP180;1474;51.460;7.150;2023-06-24T12:44:59;101296.00;;;29.40
80581;BMP180;1474;51.460;7.150;2023-06-24T12:47:26;101291.00;;;29.70
80581;BMP180;1474;51.460;7.150;2023-06-24T12:49:51;101298.00;;;29.10
80581;BMP180;1474;51.460;7.150;2023-06-24T12:52:19;101295.00;;;29.40
80581;BMP180;1474;51.460;7.150;2023-06-24T12:54:44;101320.00;;;29.80
80581;BMP180;1474;51.460;7.150;2023-06-24T12:57:10;101297.00;;;29.40
80581;BMP180;1474;51.460;7.150;2023-06-24T12:59:37;101296.00;;;29.70
80581;BMP180;1474;51.460;7.150;2023-06-24T13:02:15;101300.00;;;29.40
80581;BMP180;1474;51.460;7.150;2023-06-24T13:05:43;101297.00;;;29.30
80581;BMP180;1474;51.460;7.150;2023-06-24T13:12:50;101305.00;;;29.90
80581;BMP180;1474;51.460;7.150;2023-06-24T13:16:05;101306.00;;;29.40
80581;BMP180;1474;51.460;7.150;2023-06-24T13:18:51;101306.00;;;28.80
80581;BMP180;1474;51.460;7.150;2023-06-24T13:21:20;101300.00;;;28.90
80581;BMP180;1474;51.460;7.150;2023-06-24T13:27:01;101294.00;;;29.70
80581;BMP180;1474;51.460;7.150;2023-06-24T13:29:37;101301.00;;;29.50
80581;BMP180;1474;51.460;7.150;2023-06-24T13:32:03;101299.00;;;29.30
80581;BMP180;1474;51.460;7.150;2023-06-24T13:34:29;101297.00;;;29.10
80581;BMP180;1474;51.460;7.150;2023-06-24T13:39:42;101290.00;;;29.20
80581;BMP180;1474;51.460;7.150;2023-06-24T13:46:20;101287.00;;;29.80
80581;BMP180;1474;51.460;7.150;2023-06-24T13:48:46;101290.00;;;29.20
80581;BMP180;1474;51.460;7.150;2023-06-24T13:51:12;101285.00;;;28.50
80581;BMP180;1474;51.460;7.150;2023-06-24T13:53:41;101289.00;;;28.90
80581;BMP180;1474;51.460;7.150;2023-06-24T13:56:28;101281.00;;;29.70
80581;BMP180;1474;51.460;7.150;2023-06-24T13:58:58;101283.00;;;29.60
80581;BMP180;1474;51.460;7.150;2023-06-24T14:01:24;101282.00;;;29.60
80581;BMP180;1474;51.460;7.150;2023-06-24T14:03:51;101277.00;;;30.10
80581;BMP180;1474;51.460;7.150;2023-06-24T14:06:19;101272.00;;;30.20
80581;BMP180;1474;51.460;7.150;2023-06-24T14:08:45;101278.00;;;29.60
80581;BMP180;1474;51.460;7.150;2023-06-24T14:11:12;101275.00;;;30.20
80581;BMP180;1474;51.460;7.150;2023-06-24T14:13:38;101274.00;;;30.10
80581;BMP180;1474;51.460;7.150;2023-06-24T14:16:04;101270.00;;;30.50
80581;BMP180;1474;51.460;7.150;2023-06-24T14:18:30;101271.00;;;29.50
80581;BMP180;1474;51.460;7.150;2023-06-24T14:20:59;101257.00;;;29.20
80581;BMP180;1474;51.460;7.150;2023-06-24T14:23:26;101260.00;;;29.50
80581;BMP180;1474;51.460;7.150;2023-06-24T14:25:52;101264.00;;;29.40
80581;BMP180;1474;51.460;7.150;2023-06-24T14:28:18;101266.00;;;29.30
80581;BMP180;1474;51.460;7.150;2023-06-24T14:30:44;101258.00;;;29.40
80581;BMP180;1474;51.460;7.150;2023-06-24T14:33:12;101258.00;;;29.80
80581;BMP180;1474;51.460;7.150;2023-06-24T14:35:38;101260.00;;;29.60
80581;BMP180;1474;51.460;7.150;2023-06-24T14:38:04;101258.00;;;28.80
80581;BMP180;1474;51.460;7.150;2023-06-24T14:40:32;101258.00;;;29.10
80581;BMP180;1474;51.460;7.150;2023-06-24T14:42:58;101252.00;;;29.80
80581;BMP180;1474;51.460;7.150;2023-06-24T14:45:24;101251.00;;;29.90
80581;BMP180;1474;51.460;7.150;2023-06-24T14:47:50;101248.00;;;29.50
80581;BMP180;1474;51.460;7.150;2023-06-24T14:50:16;101241.00;;;29.90
80581;BMP180;1474;51.460;7.150;2023-06-24T14:52:41;101245.00;;;30.10
80581;BMP180;1474;51.460;7.150;2023-06-24T14:55:08;101251.00;;;30.00
80581;BMP180;1474;51.460;7.150;2023-06-24T14:57:35;101247.00;;;29.20
80581;BMP180;1474;51.460;7.150;2023-06-24T15:00:01;101236.00;;;29.50
80581;BMP180;1474;51.460;7.150;2023-06-24T15:02:26;101236.00;;;29.90
80581;BMP180;1474;51.460;7.150;2023-06-24T15:04:52;101230.00;;;30.10
80581;BMP180;1474;51.460;7.150;2023-06-24T15:07:18;101230.00;;;29.40
80581;BMP180;1474;51.460;7.150;2023-06-24T15:09:44;101232.00;;;29.70
80581;BMP180;1474;51.460;7.150;2023-06-24T15:12:10;101233.00;;;29.80
80581;BMP180;1474;51.460;7.150;2023-06-24T15:14:36;101236.00;;;29.60
80581;BMP180;1474;51.460;7.150;2023-06-24T15:17:03;101225.00;;;29.60
80581;BMP180;1474;51.460;7.150;2023-06-24T15:19:29;101225.00;;;29.40
80581;BMP180;1474;51.460;7.150;2023-06-24T15:21:55;101221.00;;;29.50
80581;BMP180;1474;51.460;7.150;2023-06-24T15:24:21;101221.00;;;29.10
80581;BMP180;1474;51.460;7.150;2023-06-24T15:26:47;101218.00;;;28.80
80581;BMP180;1474;51.460;7.150;2023-06-24T15:29:13;101223.00;;;29.00
80581;BMP180;1474;51.460;7.150;2023-06-24T15:31:38;101217.00;;;29.50
80581;BMP180;1474;51.460;7.150;2023-06-24T15:34:05;101214.00;;;29.60
80581;BMP180;1474;51.460;7.150;2023-06-24T15:36:31;101221.00;;;30.00
80581;BMP180;1474;51.460;7.150;2023-06-24T15:38:56;101216.00;;;29.80
80581;BMP180;1474;51.460;7.150;2023-06-24T15:41:23;101225.00;;;30.20
80581;BMP180;1474;51.460;7.150;2023-06-24T15:43:48;101215.00;;;29.50
80581;BMP180;1474;51.460;7.150;2023-06-24T15:46:14;101216.00;;;29.40
80581;BMP180;1474;51.460;7.150;2023-06-24T15:48:41;101208.00;;;29.80
80581;BMP180;1474;51.460;7.150;2023-06-24T15:51:07;101210.00;;;29.30
80581;BMP180;1474;51.460;7.150;2023-06-24T15:53:33;101219.00;;;29.60
80581;BMP180;1474;51.460;7.150;2023-06-24T15:55:59;101206.00;;;29.50
80581;BMP180;1474;51.460;7.150;2023-06-24T15:58:25;101210.00;;;29.50
80581;BMP180;1474;51.460;7.150;2023-06-24T16:00:51;101205.00;;;29.50
80581;BMP180;1474;51.460;7.150;2023-06-24T16:03:17;101201.00;;;29.20
80581;BMP180;1474;51.460;7.150;2023-06-24T16:05:43;101201.00;;;29.20
80581;BMP180;1474;51.460;7.150;2023-06-24T16:08:10;101202.00;;;28.60
80581;BMP180;1474;51.460;7.150;2023-06-24T16:10:35;101203.00;;;28.90
80581;BMP180;1474;51.460;7.150;2023-06-24T16:13:01;101205.00;;;28.90
80581;BMP180;1474;51.460;7.150;2023-06-24T16:15:27;101197.00;;;28.60
80581;BMP180;1474;51.460;7.150;2023-06-24T16:17:53;101199.00;;;29.00
80581;BMP180;1474;51.460;7.150;2023-06-24T16:20:18;101194.00;;;29.40
80581;BMP180;1474;51.460;7.150;2023-06-24T16:22:45;101197.00;;;29.30
80581;BMP180;1474;51.460;7.150;2023-06-24T16:25:12;101198.00;;;29.30
80581;BMP180;1474;51.460;7.150;2023-06-24T16:27:38;101201.00;;;29.30